sensor_id;sensor_type;location;lat;lon;timestamp;pressure;altitude;pressure_sealevel;temperature;humidity
75549;BME280;64133;56.002;37.208;2023-08-17T00:03:44;99845.42;;;16.99;75.08
75549;BME280;64133;56.002;37.208;2023-08-17T00:08:48;99842.75;;;16.99;75.35
75549;BME280;64133;56.002;37.208;2023-08-17T00:13:53;99847.14;;;16.86;75.33
75549;BME280;64133;56.002;37.208;2023-08-17T00:18:58;99848.46;;;16.68;75.71
75549;BME280;64133;56.002;37.208;2023-08-17T00:24:03;99852.84;;;16.91;76.05
75549;BME280;64133;56.002;37.208;2023-08-17T00:29:07;99855.96;;;16.87;75.57
75549;BME280;64133;56.002;37.208;2023-08-17T00:34:12;99850.14;;;16.87;75.73
75549;BME280;64133;56.002;37.208;2023-08-17T00:39:17;99849.40;;;16.77;75.87
75549;BME280;64133;56.002;37.208;2023-08-17T00:44:21;99855.59;;;16.81;75.75
75549;BME280;64133;56.002;37.208;2023-08-17T00:49:26;99859.77;;;16.70;75.96
75549;BME280;64133;56.002;37.208;2023-08-17T00:54:31;99859.16;;;16.58;76.00
75549;BME280;64133;56.002;37.208;2023-08-17T00:59:36;99866.16;;;16.73;76.18
75549;BME280;64133;56.002;37.208;2023-08-17T01:04:40;99870.00;;;16.97;75.88
75549;BME280;64133;56.002;37.208;2023-08-17T01:09:45;99865.16;;;16.74;75.77
75549;BME280;64133;56.002;37.208;2023-08-17T01:14:52;99865.76;;;16.68;76.03
75549;BME280;64133;56.002;37.208;2023-08-17T01:19:56;99861.02;;;16.62;76.12
75549;BME280;64133;56.002;37.208;2023-08-17T01:25:00;99858.78;;;16.71;76.52
75549;BME280;64133;56.002;37.208;2023-08-17T01:30:07;99867.05;;;16.64;76.29
75549;BME280;64133;56.002;37.208;2023-08-17T01:35:14;99872.99;;;16.44;76.52
75549;BME280;64133;56.002;37.208;2023-08-17T01:40:17;99874.13;;;16.24;77.22
75549;BME280;64133;56.002;37.208;2023-08-17T01:45:22;99871.42;;;16.20;77.43
75549;BME280;64133;56.002;37.208;2023-08-17T01:50:26;99875.92;;;16.23;77.48
75549;BME280;64133;56.002;37.208;2023-08-17T01:55:31;99873.40;;;16.36;77.20
75549;BME280;64133;56.002;37.208;2023-08-17T02:00:36;99873.40;;;16.36;77.25
75549;BME280;64133;56.002;37.208;2023-08-17T02:05:44;99875.27;;;16.39;77.07
75549;BME280;64133;56.002;37.208;2023-08-17T02:10:49;99877.09;;;16.39;76.97
75549;BME280;64133;56.002;37.208;2023-08-17T02:15:54;99878.14;;;16.42;77.06
75549;BME280;64133;56.002;37.208;2023-08-17T02:20:58;99880.63;;;16.43;76.87
75549;BME280;64133;56.002;37.208;2023-08-17T02:26:03;99876.34;;;16.28;77.04
75549;BME280;64133;56.002;37.208;2023-08-17T02:31:07;99871.42;;;16.20;77.35
75549;BME280;64133;56.002;37.208;2023-08-17T02:36:12;99881.19;;;16.19;77.13
75549;BME280;64133;56.002;37.208;2023-08-17T02:41:17;99877.13;;;16.25;77.26
75549;BME280;64133;56.002;37.208;2023-08-17T02:46:22;99875.60;;;16.08;77.57
75549;BME280;64133;56.002;37.208;2023-08-17T02:51:26;99877.41;;;16.22;77.51
75549;BME280;64133;56.002;37.208;2023-08-17T02:56:31;99885.13;;;16.43;76.96
75549;BME280;64133;56.002;37.208;2023-08-17T03:01:36;99883.80;;;16.61;76.49
75549;BME280;64133;56.002;37.208;2023-08-17T03:06:40;99885.28;;;16.73;76.14
75549;BME280;64133;56.002;37.208;2023-08-17T03:11:45;99881.20;;;16.82;75.80
75549;BME280;64133;56.002;37.208;2023-08-17T03:16:50;99880.92;;;17.07;75.40
75549;BME280;64133;56.002;37.208;2023-08-17T03:21:54;99874.59;;;17.30;74.83
75549;BME280;64133;56.002;37.208;2023-08-17T03:26:59;99876.28;;;17.36;74.10
75549;BME280;64133;56.002;37.208;2023-08-17T03:32:04;99876.12;;;17.67;73.80
75549;BME280;64133;56.002;37.208;2023-08-17T03:37:09;99884.61;;;17.93;72.82
75549;BME280;64133;56.002;37.208;2023-08-17T03:42:14;99878.31;;;18.02;72.63
75549;BME280;64133;56.002;37.208;2023-08-17T03:47:18;99881.24;;;18.25;71.94
75549;BME280;64133;56.002;37.208;2023-08-17T03:52:23;99884.09;;;18.36;71.66
75549;BME280;64133;56.002;37.208;2023-08-17T03:57:28;99883.81;;;18.55;71.08
75549;BME280;64133;56.002;37.208;2023-08-17T04:02:32;99879.53;;;18.87;70.85
75549;BME280;64133;56.002;37.208;2023-08-17T04:07:37;99886.55;;;19.08;69.95
75549;BME280;64133;56.002;37.208;2023-08-17T04:12:42;99888.86;;;19.23;69.69
75549;BME280;64133;56.002;37.208;2023-08-17T04:17:47;99889.69;;;19.32;69.24
75549;BME280;64133;56.002;37.208;2023-08-17T04:22:51;99896.55;;;19.26;69.74
75549;BME280;64133;56.002;37.208;2023-08-17T04:27:56;99895.53;;;19.31;69.83
75549;BME280;64133;56.002;37.208;2023-08-17T04:33:01;99902.66;;;19.68;69.56
75549;BME280;64133;56.002;37.208;2023-08-17T04:38:05;99902.36;;;20.10;68.47
75549;BME280;64133;56.002;37.208;2023-08-17T04:43:10;99910.39;;;20.49;67.12
75549;BME280;64133;56.002;37.208;2023-08-17T04:48:15;99905.20;;;20.52;66.71
75549;BME280;64133;56.002;37.208;2023-08-17T04:53:20;99905.08;;;20.72;66.29
75549;BME280;64133;56.002;37.208;2023-08-17T04:58:24;99898.05;;;21.13;65.18
75549;BME280;64133;56.002;37.208;2023-08-17T05:03:29;99895.63;;;21.22;64.70
75549;BME280;64133;56.002;37.208;2023-08-17T05:08:35;99900.59;;;21.33;64.04
75549;BME280;64133;56.002;37.208;2023-08-17T05:13:39;99899.14;;;21.42;63.13
75549;BME280;64133;56.002;37.208;2023-08-17T05:18:44;99898.03;;;21.70;62.26
75549;BME280;64133;56.002;37.208;2023-08-17T05:23:49;99906.50;;;21.77;61.69
75549;BME280;64133;56.002;37.208;2023-08-17T05:28:53;99910.63;;;21.99;61.63
75549;BME280;64133;56.002;37.208;2023-08-17T05:33:58;99908.77;;;22.14;61.64
75549;BME280;64133;56.002;37.208;2023-08-17T05:39:03;99906.86;;;22.33;61.30
75549;BME280;64133;56.002;37.208;2023-08-17T05:44:08;99904.28;;;22.83;60.51
75549;BME280;64133;56.002;37.208;2023-08-17T05:49:12;99906.17;;;23.32;59.43
75549;BME280;64133;56.002;37.208;2023-08-17T05:54:17;99910.97;;;23.37;58.87
75549;BME280;64133;56.002;37.208;2023-08-17T05:59:22;99905.00;;;23.41;58.60
75549;BME280;64133;56.002;37.208;2023-08-17T06:04:27;99902.22;;;23.67;57.79
75549;BME280;64133;56.002;37.208;2023-08-17T06:09:31;99904.91;;;23.84;56.68
75549;BME280;64133;56.002;37.208;2023-08-17T06:14:36;99903.52;;;23.49;56.55
75549;BME280;64133;56.002;37.208;2023-08-17T06:19:41;99904.31;;;23.71;56.21
75549;BME280;64133;56.002;37.208;2023-08-17T06:24:45;99898.41;;;23.89;55.42
75549;BME280;64133;56.002;37.208;2023-08-17T06:29:50;99895.59;;;24.04;55.25
75549;BME280;64133;56.002;37.208;2023-08-17T06:34:55;99897.22;;;24.22;54.28
75549;BME280;64133;56.002;37.208;2023-08-17T06:46:00;99895.84;;;24.77;52.67
75549;BME280;64133;56.002;37.208;2023-08-17T06:51:05;99888.92;;;24.92;52.29
75549;BME280;64133;56.002;37.208;2023-08-17T06:56:11;99890.72;;;25.15;51.74
75549;BME280;64133;56.002;37.208;2023-08-17T07:01:16;99893.11;;;25.27;51.52
75549;BME280;64133;56.002;37.208;2023-08-17T07:06:21;99898.58;;;25.50;51.03
75549;BME280;64133;56.002;37.208;2023-08-17T07:11:25;99895.08;;;25.43;50.70
75549;BME280;64133;56.002;37.208;2023-08-17T07:16:30;99898.28;;;25.49;50.17
75549;BME280;64133;56.002;37.208;2023-08-17T07:21:35;99894.25;;;25.22;51.13
75549;BME280;64133;56.002;37.208;2023-08-17T07:26:39;99896.61;;;25.61;50.40
75549;BME280;64133;56.002;37.208;2023-08-17T07:31:44;99896.80;;;25.66;50.07
75549;BME280;64133;56.002;37.208;2023-08-17T07:36:49;99890.80;;;25.77;49.58
75549;BME280;64133;56.002;37.208;2023-08-17T07:41:53;99888.89;;;25.71;49.65
75549;BME280;64133;56.002;37.208;2023-08-17T07:46:58;99890.95;;;25.89;49.10
75549;BME280;64133;56.002;37.208;2023-08-17T07:52:03;99893.94;;;25.97;48.69
75549;BME280;64133;56.002;37.208;2023-08-17T07:57:08;99887.05;;;25.78;48.88
75549;BME280;64133;56.002;37.208;2023-08-17T08:02:12;99892.72;;;26.15;48.35
75549;BME280;64133;56.002;37.208;2023-08-17T08:07:17;99890.94;;;25.96;48.37
75549;BME280;64133;56.002;37.208;2023-08-17T08:12:22;99883.66;;;26.25;47.88
75549;BME280;64133;56.002;37.208;2023-08-17T08:17:26;99882.48;;;26.30;47.78
75549;BME280;64133;56.002;37.208;2023-08-17T08:22:31;99888.77;;;26.40;47.63
75549;BME280;64133;56.002;37.208;2023-08-17T08:27:36;99881.31;;;26.13;47.90
75549;BME280;64133;56.002;37.208;2023-08-17T08:32:40;99879.48;;;26.68;47.08
75549;BME280;64133;56.002;37.208;2023-08-17T08:37:45;99875.37;;;26.90;46.57
75549;BME280;64133;56.002;37.208;2023-08-17T08:42:50;99871.22;;;27.19;46.32
75549;BME280;64133;56.002;37.208;2023-08-17T08:47:54;99861.03;;;27.30;46.09
75549;BME280;64133;56.002;37.208;2023-08-17T08:53:00;99869.00;;;27.25;46.17
75549;BME280;64133;56.002;37.208;2023-08-17T08:58:04;99857.31;;;27.25;45.85
75549;BME280;64133;56.002;37.208;2023-08-17T09:03:09;99859.64;;;26.80;46.21
75549;BME280;64133;56.002;37.208;2023-08-17T09:08:14;99857.60;;;26.44;46.09
75549;BME280;64133;56.002;37.208;2023-08-17T09:13:19;99860.02;;;27.25;45.04
75549;BME280;64133;56.002;37.208;2023-08-17T09:18:24;99860.81;;;27.41;44.66
75549;BME280;64133;56.002;37.208;2023-08-17T09:23:28;99866.42;;;27.65;44.25
75549;BME280;64133;56.002;37.208;2023-08-17T09:28:33;99861.02;;;27.92;43.60
75549;BME280;64133;56.002;37.208;2023-08-17T09:33:38;99859.88;;;28.09;43.47
75549;BME280;64133;56.002;37.208;2023-08-17T09:38:42;99856.20;;;28.13;43.02
75549;BME280;64133;56.002;37.208;2023-08-17T09:43:47;99854.19;;;28.38;42.89
75549;BME280;64133;56.002;37.208;2023-08-17T09:48:52;99856.87;;;28.68;42.41
75549;BME280;64133;56.002;37.208;2023-08-17T09:53:56;99857.72;;;28.48;42.64
75549;BME280;64133;56.002;37.208;2023-08-17T09:59:01;99850.09;;;28.17;42.86
75549;BME280;64133;56.002;37.208;2023-08-17T10:04:06;99856.25;;;28.54;42.44
75549;BME280;64133;56.002;37.208;2023-08-17T10:09:11;99851.00;;;28.02;43.18
75549;BME280;64133;56.002;37.208;2023-08-17T10:14:17;99844.70;;;28.38;42.54
75549;BME280;64133;56.002;37.208;2023-08-17T10:19:22;99851.42;;;28.36;42.32
75549;BME280;64133;56.002;37.208;2023-08-17T10:24:26;99840.28;;;28.55;41.94
75549;BME280;64133;56.002;37.208;2023-08-17T10:29:31;99843.30;;;28.89;41.29
75549;BME280;64133;56.002;37.208;2023-08-17T10:34:35;99841.13;;;28.89;40.95
75549;BME280;64133;56.002;37.208;2023-08-17T10:39:45;99835.22;;;28.59;40.94
75549;BME280;64133;56.002;37.208;2023-08-17T10:44:50;99844.99;;;28.69;40.63
75549;BME280;64133;56.002;37.208;2023-08-17T10:49:56;99836.03;;;28.48;40.03
75549;BME280;64133;56.002;37.208;2023-08-17T10:55:05;99832.87;;;28.33;40.26
75549;BME280;64133;56.002;37.208;2023-08-17T11:00:17;99824.61;;;28.37;40.17
75549;BME280;64133;56.002;37.208;2023-08-17T11:05:36;99827.78;;;28.96;39.37
75549;BME280;64133;56.002;37.208;2023-08-17T11:10:48;99814.45;;;28.86;39.36
75549;BME280;64133;56.002;37.208;2023-08-17T11:15:53;99818.77;;;29.05;38.90
75549;BME280;64133;56.002;37.208;2023-08-17T11:20:58;99793.89;;;29.34;38.45
75549;BME280;64133;56.002;37.208;2023-08-17T11:26:02;99802.86;;;29.84;38.20
75549;BME280;64133;56.002;37.208;2023-08-17T11:31:08;99799.53;;;29.18;38.79
75549;BME280;64133;56.002;37.208;2023-08-17T11:36:12;99800.39;;;29.33;38.82
75549;BME280;64133;56.002;37.208;2023-08-17T11:41:16;99798.13;;;29.53;38.41
75549;BME280;64133;56.002;37.208;2023-08-17T11:46:21;99797.45;;;29.11;38.70
75549;BME280;64133;56.002;37.208;2023-08-17T11:51:32;99795.17;;;29.17;38.48
75549;BME280;64133;56.002;37.208;2023-08-17T11:56:37;99790.92;;;29.10;38.54
75549;BME280;64133;56.002;37.208;2023-08-17T12:01:42;99776.68;;;29.28;38.26
75549;BME280;64133;56.002;37.208;2023-08-17T12:06:46;99774.59;;;29.97;37.34
75549;BME280;64133;56.002;37.208;2023-08-17T12:11:59;99771.52;;;29.53;37.91
75549;BME280;64133;56.002;37.208;2023-08-17T12:17:04;99760.00;;;29.22;38.17
75549;BME280;64133;56.002;37.208;2023-08-17T12:22:09;99758.77;;;29.79;37.53
75549;BME280;64133;56.002;37.208;2023-08-17T12:27:14;99749.55;;;29.66;37.71
75549;BME280;64133;56.002;37.208;2023-08-17T12:32:19;99738.67;;;30.23;36.85
75549;BME280;64133;56.002;37.208;2023-08-17T12:37:23;99741.95;;;30.40;36.56
75549;BME280;64133;56.002;37.208;2023-08-17T12:42:28;99721.63;;;30.14;36.82
75549;BME280;64133;56.002;37.208;2023-08-17T12:47:32;99738.58;;;29.75;37.25
75549;BME280;64133;56.002;37.208;2023-08-17T12:52:37;99736.14;;;29.91;36.86
75549;BME280;64133;56.002;37.208;2023-08-17T12:57:42;99743.37;;;29.99;36.92
75549;BME280;64133;56.002;37.208;2023-08-17T13:02:46;99736.72;;;29.64;36.81
75549;BME280;64133;56.002;37.208;2023-08-17T13:07:51;99744.89;;;29.26;37.26
75549;BME280;64133;56.002;37.208;2023-08-17T13:12:56;99729.11;;;29.64;36.74
75549;BME280;64133;56.002;37.208;2023-08-17T13:18:00;99739.65;;;29.89;36.34
75549;BME280;64133;56.002;37.208;2023-08-17T13:23:05;99738.59;;;30.18;36.12
75549;BME280;64133;56.002;37.208;2023-08-17T13:28:10;99735.65;;;30.53;35.71
75549;BME280;64133;56.002;37.208;2023-08-17T13:33:15;99738.25;;;30.15;35.95
75549;BME280;64133;56.002;37.208;2023-08-17T13:38:20;99743.38;;;30.28;36.01
75549;BME280;64133;56.002;37.208;2023-08-17T13:43:25;99736.88;;;30.46;35.72
75549;BME280;64133;56.002;37.208;2023-08-17T13:48:29;99731.82;;;30.35;36.17
75549;BME280;64133;56.002;37.208;2023-08-17T13:53:34;99736.73;;;30.52;36.07
75549;BME280;64133;56.002;37.208;2023-08-17T13:58:39;99732.30;;;30.32;36.42
75549;BME280;64133;56.002;37.208;2023-08-17T14:03:43;99736.64;;;30.16;36.67
75549;BME280;64133;56.002;37.208;2023-08-17T14:08:48;99725.54;;;30.51;36.36
75549;BME280;64133;56.002;37.208;2023-08-17T14:13:53;99723.56;;;30.47;36.45
75549;BME280;64133;56.002;37.208;2023-08-17T14:18:58;99720.63;;;30.34;36.75
75549;BME280;64133;56.002;37.208;2023-08-17T14:24:02;99713.20;;;30.44;36.82
75549;BME280;64133;56.002;37.208;2023-08-17T14:29:07;99710.70;;;30.11;37.15
75549;BME280;64133;56.002;37.208;2023-08-17T14:34:12;99718.71;;;30.32;37.13
75549;BME280;64133;56.002;37.208;2023-08-17T14:39:17;99722.67;;;30.92;36.70
75549;BME280;64133;56.002;37.208;2023-08-17T14:44:21;99721.19;;;30.84;37.16
75549;BME280;64133;56.002;37.208;2023-08-17T14:49:26;99723.98;;;30.89;37.49
75549;BME280;64133;56.002;37.208;2023-08-17T14:54:31;99720.91;;;31.22;37.29
75549;BME280;64133;56.002;37.208;2023-08-17T14:59:35;99724.02;;;31.74;37.01
75549;BME280;64133;56.002;37.208;2023-08-17T15:04:40;99718.41;;;31.84;37.26
75549;BME280;64133;56.002;37.208;2023-08-17T15:09:45;99729.16;;;31.73;37.91
75549;BME280;64133;56.002;37.208;2023-08-17T15:14:50;99725.31;;;31.91;37.77
75549;BME280;64133;56.002;37.208;2023-08-17T15:19:55;99726.34;;;32.15;38.05
75549;BME280;64133;56.002;37.208;2023-08-17T15:24:59;99719.56;;;31.68;37.91
75549;BME280;64133;56.002;37.208;2023-08-17T15:30:06;99726.23;;;32.32;37.02
75549;BME280;64133;56.002;37.208;2023-08-17T15:35:12;99729.04;;;33.87;35.30
75549;BME280;64133;56.002;37.208;2023-08-17T15:40:17;99727.78;;;34.48;33.48
75549;BME280;64133;56.002;37.208;2023-08-17T15:45:21;99715.64;;;36.59;30.58
75549;BME280;64133;56.002;37.208;2023-08-17T15:50:26;99723.01;;;37.16;29.08
75549;BME280;64133;56.002;37.208;2023-08-17T15:55:31;99739.38;;;37.03;28.56
75549;BME280;64133;56.002;37.208;2023-08-17T16:00:36;99736.88;;;36.74;28.50
75549;BME280;64133;56.002;37.208;2023-08-17T16:05:40;99742.91;;;36.79;28.00
75549;BME280;64133;56.002;37.208;2023-08-17T16:10:45;99750.69;;;36.98;27.29
75549;BME280;64133;56.002;37.208;2023-08-17T16:15:50;99761.03;;;36.78;27.29
75549;BME280;64133;56.002;37.208;2023-08-17T16:20:54;99764.19;;;36.63;27.29
75549;BME280;64133;56.002;37.208;2023-08-17T16:25:59;99769.91;;;34.93;29.13
75549;BME280;64133;56.002;37.208;2023-08-17T16:31:04;99764.25;;;30.39;35.24
75549;BME280;64133;56.002;37.208;2023-08-17T16:36:09;99764.73;;;28.17;38.45
75549;BME280;64133;56.002;37.208;2023-08-17T16:41:13;99759.98;;;27.64;39.52
75549;BME280;64133;56.002;37.208;2023-08-17T16:46:18;99765.86;;;27.24;40.11
75549;BME280;64133;56.002;37.208;2023-08-17T16:51:23;99764.16;;;26.96;40.76
75549;BME280;64133;56.002;37.208;2023-08-17T16:56:27;99766.38;;;26.90;41.26
75549;BME280;64133;56.002;37.208;2023-08-17T17:01:32;99760.52;;;26.43;42.24
75549;BME280;64133;56.002;37.208;2023-08-17T17:06:37;99767.80;;;26.26;42.92
75549;BME280;64133;56.002;37.208;2023-08-17T17:11:42;99761.20;;;26.16;43.51
75549;BME280;64133;56.002;37.208;2023-08-17T17:16:46;99759.88;;;25.93;44.15
75549;BME280;64133;56.002;37.208;2023-08-17T17:21:51;99760.88;;;25.83;44.71
75549;BME280;64133;56.002;37.208;2023-08-17T17:26:56;99769.02;;;25.63;45.30
75549;BME280;64133;56.002;37.208;2023-08-17T17:32:01;99781.36;;;25.32;46.04
75549;BME280;64133;56.002;37.208;2023-08-17T17:37:07;99785.73;;;25.07;47.03
75549;BME280;64133;56.002;37.208;2023-08-17T17:42:11;99786.06;;;25.01;50.04
75549;BME280;64133;56.002;37.208;2023-08-17T17:47:16;99788.27;;;24.82;48.15
75549;BME280;64133;56.002;37.208;2023-08-17T17:52:21;99791.45;;;24.55;48.66
75549;BME280;64133;56.002;37.208;2023-08-17T17:57:26;99794.16;;;24.24;49.65
75549;BME280;64133;56.002;37.208;2023-08-17T18:02:31;99792.52;;;24.23;50.05
75549;BME280;64133;56.002;37.208;2023-08-17T18:07:35;99783.36;;;24.11;50.45
75549;BME280;64133;56.002;37.208;2023-08-17T18:12:40;99798.09;;;23.85;51.18
75549;BME280;64133;56.002;37.208;2023-08-17T18:17:45;99776.25;;;23.83;51.61
75549;BME280;64133;56.002;37.208;2023-08-17T18:22:49;99783.36;;;23.74;52.10
75549;BME280;64133;56.002;37.208;2023-08-17T18:27:54;99778.81;;;23.74;52.27
75549;BME280;64133;56.002;37.208;2023-08-17T18:32:59;99769.39;;;23.57;52.95
75549;BME280;64133;56.002;37.208;2023-08-17T18:38:04;99768.29;;;23.45;53.31
75549;BME280;64133;56.002;37.208;2023-08-17T18:43:09;99760.87;;;23.47;53.47
75549;BME280;64133;56.002;37.208;2023-08-17T18:48:13;99757.59;;;23.34;53.87
75549;BME280;64133;56.002;37.208;2023-08-17T18:53:18;99735.27;;;22.99;54.58
75549;BME280;64133;56.002;37.208;2023-08-17T18:58:26;99750.90;;;23.06;54.95
75549;BME280;64133;56.002;37.208;2023-08-17T19:03:30;99749.67;;;22.91;55.46
75549;BME280;64133;56.002;37.208;2023-08-17T19:08:35;99751.44;;;22.84;55.70
75549;BME280;64133;56.002;37.208;2023-08-17T19:13:40;99758.58;;;22.70;55.93
75549;BME280;64133;56.002;37.208;2023-08-17T19:18:45;99762.94;;;22.50;56.53
75549;BME280;64133;56.002;37.208;2023-08-17T19:23:50;99759.25;;;22.51;56.79
75549;BME280;64133;56.002;37.208;2023-08-17T19:28:54;99754.81;;;22.54;57.00
75549;BME280;64133;56.002;37.208;2023-08-17T19:33:59;99677.17;;;21.88;57.55
75549;BME280;64133;56.002;37.208;2023-08-17T19:39:05;99748.59;;;22.25;57.66
75549;BME280;64133;56.002;37.208;2023-08-17T19:44:10;99744.75;;;22.13;57.99
75549;BME280;64133;56.002;37.208;2023-08-17T19:49:15;99756.45;;;22.01;58.38
75549;BME280;64133;56.002;37.208;2023-08-17T19:54:20;99766.81;;;22.04;58.42
75549;BME280;64133;56.002;37.208;2023-08-17T19:59:25;99759.59;;;22.05;58.60
75549;BME280;64133;56.002;37.208;2023-08-17T20:04:29;99761.64;;;22.03;58.87
75549;BME280;64133;56.002;37.208;2023-08-17T20:09:34;99766.16;;;22.02;58.89
75549;BME280;64133;56.002;37.208;2023-08-17T20:14:39;99762.27;;;21.94;59.37
75549;BME280;64133;56.002;37.208;2023-08-17T20:19:43;99773.58;;;22.11;59.08
75549;BME280;64133;56.002;37.208;2023-08-17T20:24:48;99767.38;;;22.00;59.12
75549;BME280;64133;56.002;37.208;2023-08-17T20:35:08;99775.61;;;21.32;61.24
75549;BME280;64133;56.002;37.208;2023-08-17T20:40:13;99787.13;;;21.03;61.44
75549;BME280;64133;56.002;37.208;2023-08-17T20:45:18;99801.55;;;20.98;62.23
75549;BME280;64133;56.002;37.208;2023-08-17T20:50:23;99793.00;;;21.03;62.33
75549;BME280;64133;56.002;37.208;2023-08-17T20:55:33;99794.84;;;20.83;62.80
75549;BME280;64133;56.002;37.208;2023-08-17T21:00:38;99802.80;;;20.92;62.95
75549;BME280;64133;56.002;37.208;2023-08-17T21:05:43;99796.84;;;20.86;63.43
75549;BME280;64133;56.002;37.208;2023-08-17T21:10:49;99796.14;;;20.88;63.71
75549;BME280;64133;56.002;37.208;2023-08-17T21:16:03;99796.17;;;20.83;63.99
75549;BME280;64133;56.002;37.208;2023-08-17T21:21:07;99796.09;;;20.77;64.08
75549;BME280;64133;56.002;37.208;2023-08-17T21:26:11;99798.80;;;20.50;67.05
75549;BME280;64133;56.002;37.208;2023-08-17T21:31:16;99793.63;;;20.44;65.79
75549;BME280;64133;56.002;37.208;2023-08-17T21:36:21;99787.87;;;20.60;65.52
75549;BME280;64133;56.002;37.208;2023-08-17T21:41:26;99781.65;;;20.59;65.46
75549;BME280;64133;56.002;37.208;2023-08-17T21:46:33;99779.89;;;20.70;65.55
75549;BME280;64133;56.002;37.208;2023-08-17T21:51:38;99782.52;;;20.60;65.84
75549;BME280;64133;56.002;37.208;2023-08-17T21:56:43;99787.09;;;20.51;65.97
75549;BME280;64133;56.002;37.208;2023-08-17T22:01:47;99791.36;;;20.33;66.39
75549;BME280;64133;56.002;37.208;2023-08-17T22:06:52;99788.33;;;20.13;67.28
75549;BME280;64133;56.002;37.208;2023-08-17T22:11:57;99787.34;;;20.33;67.04
75549;BME280;64133;56.002;37.208;2023-08-17T22:17:01;99789.91;;;20.26;67.15
75549;BME280;64133;56.002;37.208;2023-08-17T22:22:06;99778.98;;;20.32;67.29
75549;BME280;64133;56.002;37.208;2023-08-17T22:27:11;99784.31;;;20.36;67.33
75549;BME280;64133;56.002;37.208;2023-08-17T22:32:15;99783.33;;;20.33;67.54
75549;BME280;64133;56.002;37.208;2023-08-17T22:37:20;99786.27;;;20.19;67.84
75549;BME280;64133;56.002;37.208;2023-08-17T22:42:25;99786.83;;;20.11;68.14
75549;BME280;64133;56.002;37.208;2023-08-17T22:47:30;99792.52;;;19.76;68.87
75549;BME280;64133;56.002;37.208;2023-08-17T22:52:35;99801.13;;;19.64;69.97
75549;BME280;64133;56.002;37.208;2023-08-17T22:57:39;99796.87;;;19.81;69.46
75549;BME280;64133;56.002;37.208;2023-08-17T23:02:44;99804.60;;;19.72;69.87
75549;BME280;64133;56.002;37.208;2023-08-17T23:07:49;99810.12;;;19.67;70.19
75549;BME280;64133;56.002;37.208;2023-08-17T23:12:53;99818.43;;;19.76;70.01
75549;BME280;64133;56.002;37.208;2023-08-17T23:17:58;99821.99;;;19.68;70.20
75549;BME280;64133;56.002;37.208;2023-08-17T23:23:03;99819.58;;;19.86;70.25
75549;BME280;64133;56.002;37.208;2023-08-17T23:28:08;99824.93;;;19.86;70.12
75549;BME280;64133;56.002;37.208;2023-08-17T23:33:12;99820.83;;;19.98;70.00
75549;BME280;64133;56.002;37.208;2023-08-17T23:38:17;99820.22;;;19.88;70.25
75549;BME280;64133;56.002;37.208;2023-08-17T23:43:22;99830.09;;;19.87;70.30
75549;BME280;64133;56.002;37.208;2023-08-17T23:48:27;99833.84;;;19.70;70.62
75549;BME280;64133;56.002;37.208;2023-08-17T23:53:31;99840.73;;;19.44;71.32
75549;BME280;64133;56.002;37.208;2023-08-17T23:58:36;99841.91;;;19.41;71.87
